createdAt,value
2018-12-10T00:00:19.772Z,53.60
2018-12-10T00:02:49.911Z,53.60
2018-12-10T00:05:17.143Z,54.00
2018-12-10T00:07:45.181Z,54.00
2018-12-10T00:10:12.382Z,53.90
2018-12-10T00:12:40.465Z,53.90
2018-12-10T00:15:07.710Z,54.00
2018-12-10T00:17:35.719Z,54.00
2018-12-10T00:20:04.578Z,53.90
2018-12-10T00:22:31.947Z,54.10
2018-12-10T00:24:59.953Z,53.80
2018-12-10T00:27:28.126Z,53.90
2018-12-10T00:29:56.726Z,54.00
2018-12-10T00:32:23.940Z,53.80
2018-12-10T00:34:51.150Z,54.00
2018-12-10T00:37:18.413Z,53.80
2018-12-10T00:39:45.619Z,54.20
2018-12-10T00:42:12.828Z,57.40
2018-12-10T00:44:40.039Z,55.00
2018-12-10T00:47:07.293Z,55.20
2018-12-10T00:49:34.509Z,56.10
2018-12-10T00:52:02.498Z,55.90
2018-12-10T00:54:29.716Z,55.80
2018-12-10T00:56:56.957Z,55.30
2018-12-10T00:59:24.163Z,55.10
2018-12-10T01:01:51.375Z,54.80
2018-12-10T01:04:18.598Z,54.80
2018-12-10T01:06:45.807Z,54.70
2018-12-10T01:09:13.017Z,54.50
2018-12-10T01:11:40.226Z,54.50
2018-12-10T01:14:07.448Z,54.50
2018-12-10T01:16:34.658Z,54.30
2018-12-10T01:19:02.803Z,54.40
2018-12-10T01:21:30.025Z,54.30
2018-12-10T01:23:57.231Z,54.20
2018-12-10T01:26:24.434Z,54.20
2018-12-10T01:28:51.643Z,54.20
2018-12-10T01:31:19.840Z,54.20
2018-12-10T01:33:47.057Z,54.20
2018-12-10T01:36:15.254Z,54.20
2018-12-10T01:38:43.314Z,54.20
2018-12-10T01:41:10.528Z,54.10
2018-12-10T01:43:38.599Z,54.10
2018-12-10T01:46:06.329Z,54.00
2018-12-10T01:48:33.578Z,54.10
2018-12-10T01:51:00.790Z,54.00
2018-12-10T01:53:28.020Z,54.00
2018-12-10T01:55:56.162Z,54.00
2018-12-10T01:58:23.382Z,54.10
2018-12-10T02:00:50.607Z,54.00
2018-12-10T02:03:17.839Z,54.00
2018-12-10T02:05:45.063Z,54.00
2018-12-10T02:08:12.289Z,54.00
2018-12-10T02:10:39.498Z,54.00
2018-12-10T02:13:06.717Z,53.90
2018-12-10T02:15:33.933Z,53.80
2018-12-10T02:18:02.012Z,53.90
2018-12-10T02:20:29.233Z,54.00
2018-12-10T02:22:56.440Z,53.90
2018-12-10T02:25:23.701Z,54.00
2018-12-10T02:27:50.920Z,54.00
2018-12-10T02:30:18.944Z,54.00
2018-12-10T02:32:46.282Z,54.10
2018-12-10T02:35:13.491Z,54.00
2018-12-10T02:37:40.707Z,54.10
2018-12-10T02:40:07.927Z,54.00
2018-12-10T02:42:35.159Z,54.00
2018-12-10T02:45:02.742Z,54.00
2018-12-10T02:47:30.889Z,54.00
2018-12-10T02:49:59.551Z,54.00
2018-12-10T02:52:27.697Z,53.80
2018-12-10T02:54:54.916Z,53.80
2018-12-10T02:57:23.077Z,53.90
2018-12-10T02:59:51.251Z,54.40
2018-12-10T03:02:18.453Z,54.80
2018-12-10T03:04:45.684Z,55.10
2018-12-10T03:07:12.910Z,54.50
2018-12-10T03:09:40.129Z,54.20
2018-12-10T03:12:08.233Z,54.00
2018-12-10T03:14:36.384Z,53.80
2018-12-10T03:17:04.093Z,53.80
2018-12-10T03:19:31.315Z,53.80
2018-12-10T03:21:58.528Z,53.70
2018-12-10T03:24:26.652Z,53.80
2018-12-10T03:26:53.860Z,53.70
2018-12-10T03:29:22.008Z,53.60
2018-12-10T03:31:49.216Z,53.50
2018-12-10T03:34:16.438Z,53.70
2018-12-10T03:36:43.643Z,53.70
2018-12-10T03:39:11.703Z,53.60
2018-12-10T03:41:39.697Z,53.70
2018-12-10T03:44:07.903Z,53.90
2018-12-10T03:46:35.497Z,54.00
2018-12-10T03:49:03.831Z,54.00
2018-12-10T03:51:31.947Z,54.00
2018-12-10T03:53:59.178Z,54.00
2018-12-10T03:56:27.369Z,53.90
2018-12-10T03:58:55.532Z,54.10
2018-12-10T04:01:22.741Z,53.90
2018-12-10T04:03:50.745Z,53.80
2018-12-10T04:06:18.901Z,53.70
2018-12-10T04:08:46.131Z,53.80
2018-12-10T04:11:13.332Z,53.80
2018-12-10T04:13:41.233Z,53.70
2018-12-10T04:16:09.421Z,53.70
2018-12-10T04:18:36.671Z,54.00
2018-12-10T04:21:03.933Z,53.60
2018-12-10T04:23:31.608Z,53.50
2018-12-10T04:25:59.620Z,53.70
2018-12-10T04:28:26.856Z,53.60
2018-12-10T04:30:54.070Z,53.50
2018-12-10T04:33:22.111Z,53.50
2018-12-10T04:35:50.288Z,53.50
2018-12-10T04:38:18.428Z,53.60
2018-12-10T04:40:45.643Z,53.40
2018-12-10T04:43:12.886Z,53.50
2018-12-10T04:45:40.107Z,53.40
2018-12-10T04:48:08.334Z,53.40
2018-12-10T04:50:36.319Z,53.30
2018-12-10T04:53:04.392Z,53.40
2018-12-10T04:55:32.320Z,54.20
2018-12-10T04:57:59.578Z,53.50
2018-12-10T05:00:26.911Z,53.50
2018-12-10T05:02:54.143Z,53.50
2018-12-10T05:05:21.621Z,53.50
2018-12-10T05:07:49.678Z,53.40
2018-12-10T05:10:17.813Z,53.40
2018-12-10T05:12:45.037Z,53.60
2018-12-10T05:15:13.072Z,53.60
2018-12-10T05:17:40.372Z,53.80
2018-12-10T05:20:08.429Z,53.90
2018-12-10T05:22:35.651Z,53.90
2018-12-10T05:25:04.206Z,54.20
2018-12-10T05:27:32.349Z,53.70
2018-12-10T05:30:00.598Z,53.50
2018-12-10T05:32:27.826Z,53.50
2018-12-10T05:34:55.088Z,53.40
2018-12-10T05:37:22.425Z,53.50
2018-12-10T05:39:49.727Z,54.20
2018-12-10T05:42:16.946Z,53.30
2018-12-10T05:44:44.158Z,53.20
2018-12-10T05:47:11.588Z,53.20
2018-12-10T05:49:39.621Z,53.10
2018-12-10T05:52:06.833Z,53.10
2018-12-10T05:54:34.832Z,53.20
2018-12-10T05:57:03.883Z,53.10
2018-12-10T05:59:32.613Z,53.20
2018-12-10T06:02:00.955Z,53.10
2018-12-10T06:04:28.159Z,53.10
2018-12-10T06:06:55.525Z,53.80
2018-12-10T06:09:22.800Z,53.20
2018-12-10T06:11:50.812Z,53.40
2018-12-10T06:14:18.019Z,53.60
2018-12-10T06:16:46.199Z,53.70
2018-12-10T06:19:13.412Z,53.80
2018-12-10T06:21:41.441Z,53.70
2018-12-10T06:24:09.579Z,53.80
2018-12-10T06:26:37.753Z,53.80
2018-12-10T06:29:06.019Z,53.60
2018-12-10T06:31:34.232Z,53.80
2018-12-10T06:34:02.506Z,53.80
2018-12-10T06:36:30.540Z,54.10
2018-12-10T06:38:57.765Z,53.70
2018-12-10T06:41:25.920Z,53.60
2018-12-10T06:43:53.146Z,53.70
2018-12-10T06:46:21.287Z,53.90
2018-12-10T06:48:49.296Z,53.80
2018-12-10T06:51:16.513Z,53.80
2018-12-10T06:53:43.719Z,53.60
2018-12-10T06:56:10.939Z,53.60
2018-12-10T06:58:38.153Z,53.50
2018-12-10T07:01:05.370Z,53.70
2018-12-10T07:06:24.251Z,53.90
2018-12-10T07:08:51.469Z,53.70
2018-12-10T07:11:18.689Z,53.20
2018-12-10T07:13:46.891Z,52.80
2018-12-10T07:16:14.192Z,52.80
2018-12-10T07:18:41.416Z,53.00
2018-12-10T07:21:08.669Z,53.00
2018-12-10T07:23:35.897Z,52.80
2018-12-10T07:26:03.160Z,52.90
2018-12-10T07:28:30.384Z,52.80
2018-12-10T07:30:57.659Z,52.80
2018-12-10T07:33:24.888Z,52.70
2018-12-10T07:35:52.889Z,52.70
2018-12-10T07:38:20.123Z,52.70
2018-12-10T07:40:47.342Z,52.70
2018-12-10T07:43:14.563Z,52.70
2018-12-10T07:45:41.788Z,52.80
2018-12-10T07:48:09.021Z,52.70
2018-12-10T07:50:36.247Z,52.70
2018-12-10T07:53:03.522Z,53.50
2018-12-10T07:55:30.734Z,52.70
2018-12-10T07:57:57.963Z,52.70
2018-12-10T08:00:26.081Z,52.90
2018-12-10T08:02:54.108Z,52.90
2018-12-10T08:05:21.360Z,52.90
2018-12-10T08:07:50.199Z,52.80
2018-12-10T08:10:18.204Z,52.80
2018-12-10T08:12:45.432Z,52.80
2018-12-10T08:15:12.653Z,52.80
2018-12-10T08:17:39.884Z,52.90
2018-12-10T08:20:07.099Z,52.80
2018-12-10T08:22:35.097Z,52.70
2018-12-10T08:25:02.327Z,52.90
2018-12-10T08:27:29.547Z,53.00
2018-12-10T08:29:58.212Z,53.00
2018-12-10T08:32:26.217Z,53.00
2018-12-10T08:34:54.352Z,52.80
2018-12-10T08:37:21.748Z,52.80
2018-12-10T08:39:49.918Z,52.80
2018-12-10T08:42:17.136Z,52.80
2018-12-10T08:44:44.397Z,53.00
2018-12-10T08:47:16.033Z,52.80
2018-12-10T08:49:41.721Z,52.80
2018-12-10T08:52:09.775Z,52.80
2018-12-10T08:54:37.057Z,52.50
2018-12-10T08:57:05.325Z,52.70
2018-12-10T08:59:33.450Z,52.80
2018-12-10T09:02:00.676Z,52.50
2018-12-10T09:04:27.942Z,52.50
2018-12-10T09:06:55.958Z,52.30
2018-12-10T09:09:24.038Z,52.10
2018-12-10T09:11:51.251Z,52.10
2018-12-10T09:14:18.602Z,52.00
2018-12-10T09:16:46.657Z,51.90
2018-12-10T09:19:14.701Z,51.60
2018-12-10T09:21:41.946Z,50.80
2018-12-10T09:24:09.168Z,51.30
2018-12-10T09:26:36.431Z,51.00
2018-12-10T09:29:03.647Z,51.40
2018-12-10T09:31:32.605Z,51.10
2018-12-10T09:33:59.817Z,50.60
2018-12-10T09:36:27.902Z,50.80
2018-12-10T09:38:55.941Z,50.40
2018-12-10T09:41:24.089Z,50.30
2018-12-10T09:43:52.308Z,50.50
2018-12-10T09:46:27.335Z,50.40
2018-12-10T09:48:50.403Z,50.50
2018-12-10T09:51:18.440Z,50.10
2018-12-10T09:53:46.569Z,50.30
2018-12-10T09:56:13.821Z,50.40
2018-12-10T09:58:41.041Z,50.10
2018-12-10T10:01:08.300Z,50.30
2018-12-10T10:03:36.457Z,50.20
2018-12-10T10:06:04.509Z,50.50
2018-12-10T10:08:33.362Z,50.60
2018-12-10T10:11:01.527Z,50.50
2018-12-10T10:13:28.862Z,50.50
2018-12-10T10:15:57.002Z,51.30
2018-12-10T10:18:24.271Z,50.50
2018-12-10T10:20:52.273Z,50.60
2018-12-10T10:23:19.547Z,50.60
2018-12-10T10:25:46.781Z,50.60
2018-12-10T10:28:14.912Z,50.70
2018-12-10T10:30:43.881Z,50.70
2018-12-10T10:33:11.442Z,50.80
2018-12-10T10:35:38.697Z,50.90
2018-12-10T10:38:05.951Z,51.00
2018-12-10T10:40:33.220Z,50.90
2018-12-10T10:43:00.504Z,50.90
2018-12-10T10:45:34.720Z,50.90
2018-12-10T10:47:57.003Z,50.90
2018-12-10T10:50:24.228Z,51.00
2018-12-10T10:52:52.095Z,51.10
2018-12-10T10:55:19.435Z,51.40
2018-12-10T10:57:46.656Z,51.40
2018-12-10T11:00:19.664Z,51.50
2018-12-10T11:02:52.813Z,51.90
2018-12-10T11:05:20.034Z,51.30
2018-12-10T11:07:47.247Z,53.60
2018-12-10T11:10:14.467Z,54.80
2018-12-10T11:12:41.650Z,54.10
2018-12-10T11:15:08.876Z,53.00
2018-12-10T11:17:36.098Z,52.60
2018-12-10T11:20:05.291Z,53.30
2018-12-10T11:22:33.149Z,52.60
2018-12-10T11:25:00.363Z,52.30
2018-12-10T11:27:27.583Z,52.10
2018-12-10T11:29:54.796Z,52.20
2018-12-10T11:32:22.949Z,52.10
2018-12-10T11:34:50.166Z,52.00
2018-12-10T11:37:17.424Z,52.20
2018-12-10T11:39:45.460Z,51.80
2018-12-10T11:42:12.687Z,52.00
2018-12-10T11:44:39.894Z,52.10
2018-12-10T11:47:13.006Z,52.00
2018-12-10T11:49:36.397Z,52.00
2018-12-10T11:52:03.611Z,51.90
2018-12-10T11:54:32.410Z,51.90
2018-12-10T11:57:00.576Z,51.90
2018-12-10T11:59:27.817Z,51.80
2018-12-10T12:01:55.039Z,51.80
2018-12-10T12:04:23.249Z,51.90
2018-12-10T12:06:51.256Z,51.80
2018-12-10T12:09:18.510Z,51.70
2018-12-10T12:11:46.656Z,51.60
2018-12-10T12:14:13.860Z,51.60
2018-12-10T12:16:41.084Z,51.60
2018-12-10T12:19:11.447Z,51.60
2018-12-10T12:21:37.567Z,51.60
2018-12-10T12:24:04.785Z,51.60
2018-12-10T12:26:32.922Z,51.60
2018-12-10T12:29:00.151Z,51.70
2018-12-10T12:31:28.288Z,51.60
2018-12-10T12:33:56.418Z,51.60
2018-12-10T12:36:24.586Z,51.60
2018-12-10T12:38:51.838Z,51.70
2018-12-10T12:41:19.069Z,51.50
2018-12-10T12:43:46.384Z,51.50
2018-12-10T12:46:13.866Z,51.60
2018-12-10T12:48:41.088Z,51.50
2018-12-10T12:51:08.343Z,51.60
2018-12-10T12:53:36.565Z,51.60
2018-12-10T12:56:04.726Z,51.60
2018-12-10T12:58:32.514Z,51.70
2018-12-10T13:01:00.585Z,51.60
2018-12-10T13:03:28.815Z,51.60
2018-12-10T13:05:56.020Z,51.70
2018-12-10T13:08:30.836Z,51.50
2018-12-10T13:10:54.292Z,51.70
2018-12-10T13:13:21.689Z,51.80
2018-12-10T13:15:49.731Z,52.20
2018-12-10T13:18:17.909Z,51.90
2018-12-10T13:20:46.105Z,51.80
2018-12-10T13:23:14.251Z,51.70
2018-12-10T13:25:42.412Z,51.50
2018-12-10T13:28:10.535Z,51.50
2018-12-10T13:30:38.742Z,51.60
2018-12-10T13:33:07.077Z,52.30
2018-12-10T13:38:07.672Z,51.60
2018-12-10T13:40:33.459Z,51.40
2018-12-10T13:43:02.340Z,51.60
2018-12-10T13:45:31.134Z,51.50
2018-12-10T13:47:59.007Z,51.30
2018-12-10T13:50:26.229Z,51.60
2018-12-10T13:52:53.442Z,51.60
2018-12-10T13:55:20.655Z,51.60
2018-12-10T13:57:48.653Z,51.50
2018-12-10T14:00:15.867Z,51.50
2018-12-10T14:02:43.885Z,51.60
2018-12-10T14:05:11.723Z,51.30
2018-12-10T14:07:39.740Z,51.70
2018-12-10T14:10:07.070Z,51.60
2018-12-10T14:12:34.291Z,51.60
2018-12-10T14:15:02.104Z,51.70
2018-12-10T14:17:30.251Z,51.60
2018-12-10T14:19:58.110Z,51.60
2018-12-10T14:22:25.317Z,51.50
2018-12-10T14:24:53.339Z,51.60
2018-12-10T14:27:20.557Z,51.50
2018-12-10T14:29:47.926Z,51.50
2018-12-10T14:32:15.299Z,51.60
2018-12-10T14:34:43.434Z,51.50
2018-12-10T14:37:10.653Z,51.60
2018-12-10T14:39:37.876Z,51.40
2018-12-10T14:42:05.486Z,51.40
2018-12-10T14:44:33.825Z,51.30
2018-12-10T14:47:02.682Z,51.40
2018-12-10T14:49:29.907Z,51.30
2018-12-10T14:51:57.108Z,51.50
2018-12-10T14:54:24.350Z,51.40
2018-12-10T14:56:52.484Z,51.30
2018-12-10T14:59:19.699Z,51.40
2018-12-10T15:01:47.887Z,51.40
2018-12-10T15:04:15.246Z,51.30
2018-12-10T15:06:43.372Z,51.50
2018-12-10T15:09:10.588Z,51.30
2018-12-10T15:11:37.806Z,51.50
2018-12-10T15:14:05.028Z,51.30
2018-12-10T15:16:32.253Z,51.50
2018-12-10T15:19:00.414Z,51.40
2018-12-10T15:21:27.646Z,51.50
2018-12-10T15:23:55.695Z,51.40
2018-12-10T15:26:22.923Z,51.70
2018-12-10T15:28:50.141Z,52.00
2018-12-10T15:31:18.168Z,51.80
2018-12-10T15:33:45.426Z,51.50
2018-12-10T15:36:12.646Z,51.20
2018-12-10T15:38:39.861Z,51.10
2018-12-10T15:41:07.081Z,51.20
2018-12-10T15:43:34.299Z,51.20
2018-12-10T15:46:03.504Z,51.20
2018-12-10T15:48:30.734Z,51.40
2018-12-10T15:50:58.888Z,51.20
2018-12-10T15:53:27.034Z,51.10
2018-12-10T15:55:54.244Z,51.20
2018-12-10T15:58:21.503Z,51.10
2018-12-10T16:00:48.716Z,51.00
2018-12-10T16:03:15.944Z,51.10
2018-12-10T16:05:43.160Z,51.00
2018-12-10T16:08:10.424Z,51.00
2018-12-10T16:10:38.519Z,51.00
2018-12-10T16:13:06.655Z,51.00
2018-12-10T16:15:34.018Z,50.90
2018-12-10T16:18:01.726Z,51.10
2018-12-10T16:20:28.952Z,51.00
2018-12-10T16:22:56.168Z,51.10
2018-12-10T16:25:23.382Z,51.00
2018-12-10T16:27:50.696Z,51.10
2018-12-10T16:30:18.795Z,51.10
2018-12-10T16:32:46.826Z,51.10
2018-12-10T16:35:14.046Z,51.10
2018-12-10T16:37:41.265Z,51.10
2018-12-10T16:40:09.285Z,50.90
2018-12-10T16:42:36.494Z,51.00
2018-12-10T16:45:05.108Z,50.80
2018-12-10T16:47:32.387Z,50.90
2018-12-10T16:50:00.479Z,51.50
2018-12-10T16:52:28.548Z,51.00
2018-12-10T16:54:56.681Z,51.00
2018-12-10T16:57:24.822Z,51.10
2018-12-10T16:59:52.046Z,50.90
2018-12-10T17:02:19.271Z,51.20
2018-12-10T17:04:46.497Z,51.20
2018-12-10T17:07:13.730Z,51.20
2018-12-10T17:09:41.269Z,50.60
2018-12-10T17:12:08.582Z,50.80
2018-12-10T17:14:35.916Z,50.80
2018-12-10T17:17:04.049Z,50.70
2018-12-10T17:19:31.770Z,50.80
2018-12-10T17:21:59.004Z,50.90
2018-12-10T17:24:27.057Z,50.80
2018-12-10T17:26:55.062Z,50.70
2018-12-10T17:29:22.278Z,50.80
2018-12-10T17:31:49.511Z,50.80
2018-12-10T17:34:16.724Z,51.00
2018-12-10T17:36:44.754Z,51.00
2018-12-10T17:39:11.973Z,51.00
2018-12-10T17:41:39.189Z,51.00
2018-12-10T17:44:06.423Z,50.90
2018-12-10T17:46:33.636Z,51.00
2018-12-10T17:49:00.847Z,50.90
2018-12-10T17:51:28.075Z,50.70
2018-12-10T17:53:55.418Z,51.00
2018-12-10T17:56:22.741Z,51.10
2018-12-10T17:58:50.119Z,51.20
2018-12-10T18:01:17.382Z,50.90
2018-12-10T18:03:44.593Z,51.00
2018-12-10T18:06:12.730Z,51.20
2018-12-10T18:08:39.955Z,51.10
2018-12-10T18:11:07.199Z,51.30
2018-12-10T18:13:34.424Z,51.00
2018-12-10T18:16:02.388Z,50.60
2018-12-10T18:18:29.625Z,50.80
2018-12-10T18:20:56.854Z,50.80
2018-12-10T18:23:24.073Z,50.80
2018-12-10T18:25:52.097Z,50.90
2018-12-10T18:28:19.362Z,50.80
2018-12-10T18:30:46.590Z,51.00
2018-12-10T18:33:14.703Z,51.00
2018-12-10T18:35:41.929Z,50.90
2018-12-10T18:38:09.128Z,51.20
2018-12-10T18:40:36.354Z,51.00
2018-12-10T18:43:03.585Z,50.90
2018-12-10T18:45:32.626Z,50.80
2018-12-10T18:48:00.669Z,50.80
2018-12-10T18:50:28.711Z,50.90
2018-12-10T18:52:55.932Z,51.30
2018-12-10T18:55:23.160Z,51.20
2018-12-10T18:57:50.379Z,51.20
2018-12-10T19:00:17.640Z,51.90
2018-12-10T19:02:44.861Z,51.40
2018-12-10T19:05:12.132Z,51.30
2018-12-10T19:07:39.369Z,51.60
2018-12-10T19:10:07.003Z,52.20
2018-12-10T19:12:34.710Z,51.50
2018-12-10T19:15:02.502Z,51.70
2018-12-10T19:17:29.722Z,51.40
2018-12-10T19:19:57.347Z,51.40
2018-12-10T19:22:25.538Z,51.10
2018-12-10T19:24:52.909Z,51.00
2018-12-10T19:27:20.185Z,51.50
2018-12-10T19:29:47.399Z,51.10
2018-12-10T19:32:14.658Z,51.10
2018-12-10T19:34:41.868Z,51.10
2018-12-10T19:37:09.136Z,51.00
2018-12-10T19:39:36.366Z,50.90
2018-12-10T19:42:03.631Z,50.80
2018-12-10T19:44:31.967Z,50.90
2018-12-10T19:46:59.219Z,51.60
2018-12-10T19:49:26.511Z,51.00
2018-12-10T19:51:53.763Z,50.90
2018-12-10T19:54:21.023Z,50.80
2018-12-10T19:56:48.317Z,50.90
2018-12-10T19:59:15.583Z,51.00
2018-12-10T20:01:42.841Z,50.90
2018-12-10T20:04:10.089Z,50.80
2018-12-10T20:06:39.316Z,51.00
2018-12-10T20:09:07.274Z,51.00
2018-12-10T20:11:34.497Z,50.80
2018-12-10T20:14:02.333Z,51.10
2018-12-10T20:16:29.589Z,51.00
2018-12-10T20:18:56.813Z,51.00
2018-12-10T20:21:24.044Z,51.10
2018-12-10T20:23:52.178Z,51.10
2018-12-10T20:26:19.544Z,51.30
2018-12-10T20:28:46.768Z,51.30
2018-12-10T20:31:14.052Z,51.30
2018-12-10T20:33:41.313Z,51.10
2018-12-10T20:36:08.588Z,51.30
2018-12-10T20:38:35.818Z,51.30
2018-12-10T20:41:03.054Z,51.30
2018-12-10T20:43:30.272Z,51.10
2018-12-10T20:45:57.501Z,50.90
2018-12-10T20:48:24.808Z,51.30
2018-12-10T20:50:52.020Z,51.10
2018-12-10T20:53:19.371Z,51.20
2018-12-10T20:55:46.586Z,51.00
2018-12-10T20:58:13.809Z,51.30
2018-12-10T21:00:41.204Z,51.00
2018-12-10T21:03:08.420Z,51.40
2018-12-10T21:05:37.659Z,51.30
2018-12-10T21:08:04.876Z,51.90
2018-12-10T21:10:33.068Z,51.30
2018-12-10T21:13:00.320Z,51.30
2018-12-10T21:15:27.536Z,51.30
2018-12-10T21:17:54.750Z,51.40
2018-12-10T21:20:22.880Z,51.50
2018-12-10T21:22:50.143Z,51.30
2018-12-10T21:25:18.286Z,51.20
2018-12-10T21:27:45.506Z,51.40
2018-12-10T21:30:12.806Z,51.20
2018-12-10T21:32:40.095Z,51.10
2018-12-10T21:35:07.315Z,51.00
2018-12-10T21:37:34.518Z,50.80
2018-12-10T21:40:03.496Z,50.70
2018-12-10T21:42:30.750Z,50.90
2018-12-10T21:44:57.980Z,51.00
2018-12-10T21:47:26.115Z,51.10
2018-12-10T21:49:53.391Z,51.00
2018-12-10T21:52:21.295Z,51.10
2018-12-10T21:54:48.511Z,51.00
2018-12-10T21:57:15.736Z,51.10
2018-12-10T21:59:42.941Z,51.00
2018-12-10T22:02:10.991Z,51.00
2018-12-10T22:04:38.228Z,51.20
2018-12-10T22:07:06.233Z,51.30
2018-12-10T22:09:33.459Z,51.20
2018-12-10T22:12:01.798Z,51.20
2018-12-10T22:14:30.782Z,51.10
2018-12-10T22:16:58.469Z,51.30
2018-12-10T22:19:25.717Z,51.20
2018-12-10T22:21:53.921Z,51.10
2018-12-10T22:24:21.137Z,51.10
2018-12-10T22:26:48.388Z,51.20
2018-12-10T22:29:15.722Z,51.20
2018-12-10T22:31:42.982Z,51.20
2018-12-10T22:34:10.211Z,51.10
2018-12-10T22:36:37.434Z,51.10
2018-12-10T22:39:05.637Z,51.00
2018-12-10T22:41:33.596Z,51.00
2018-12-10T22:44:00.808Z,50.90
2018-12-10T22:46:28.910Z,51.00
2018-12-10T22:48:56.922Z,50.90
2018-12-10T22:51:25.063Z,51.00
2018-12-10T22:53:53.209Z,51.00
2018-12-10T22:56:20.423Z,51.20
2018-12-10T22:58:48.440Z,51.10
2018-12-10T23:01:16.630Z,51.70
2018-12-10T23:03:43.884Z,51.00
2018-12-10T23:06:11.191Z,51.10
2018-12-10T23:08:39.233Z,51.10
2018-12-10T23:11:08.277Z,51.10
2018-12-10T23:13:35.564Z,51.10
2018-12-10T23:16:03.237Z,51.00
2018-12-10T23:18:31.687Z,51.00
2018-12-10T23:20:58.943Z,51.10
2018-12-10T23:23:27.065Z,51.00
2018-12-10T23:25:54.295Z,51.40
2018-12-10T23:28:21.507Z,51.20
2018-12-10T23:30:48.723Z,51.00
2018-12-10T23:33:15.941Z,51.00
2018-12-10T23:35:43.170Z,51.00
2018-12-10T23:38:10.987Z,51.00
2018-12-10T23:40:39.132Z,51.10
2018-12-10T23:43:11.991Z,51.20
2018-12-10T23:45:39.246Z,51.10
2018-12-10T23:48:06.476Z,51.30
2018-12-10T23:50:33.730Z,51.00
2018-12-10T23:53:02.207Z,51.10
2018-12-10T23:55:30.243Z,51.20
2018-12-10T23:57:58.295Z,51.30
